sensor_id;sensor_type;location;lat;lon;timestamp;P1;durP1;ratioP1;P2;durP2;ratioP2
9884;SDS011;4981;50.966;4.842;2023-07-31T00:02:03;13.83;;;4.83;;
9884;SDS011;4981;50.966;4.842;2023-07-31T00:04:30;14.40;;;4.63;;
9884;SDS011;4981;50.966;4.842;2023-07-31T00:06:57;12.23;;;5.10;;
9884;SDS011;4981;50.966;4.842;2023-07-31T00:09:25;20.13;;;4.90;;
9884;SDS011;4981;50.966;4.842;2023-07-31T00:11:52;18.53;;;5.83;;
9884;SDS011;4981;50.966;4.842;2023-07-31T00:14:19;20.80;;;5.40;;
9884;SDS011;4981;50.966;4.842;2023-07-31T00:16:46;18.53;;;4.87;;
9884;SDS011;4981;50.966;4.842;2023-07-31T00:19:13;14.03;;;5.40;;
9884;SDS011;4981;50.966;4.842;2023-07-31T00:21:40;12.90;;;5.30;;
9884;SDS011;4981;50.966;4.842;2023-07-31T00:24:07;21.60;;;5.67;;
9884;SDS011;4981;50.966;4.842;2023-07-31T00:26:35;13.20;;;5.30;;
9884;SDS011;4981;50.966;4.842;2023-07-31T00:29:02;14.60;;;5.17;;
9884;SDS011;4981;50.966;4.842;2023-07-31T00:31:29;18.60;;;5.30;;
9884;SDS011;4981;50.966;4.842;2023-07-31T00:33:56;19.53;;;5.27;;
9884;SDS011;4981;50.966;4.842;2023-07-31T00:36:23;14.97;;;5.17;;
9884;SDS011;4981;50.966;4.842;2023-07-31T00:38:50;17.73;;;5.67;;
9884;SDS011;4981;50.966;4.842;2023-07-31T00:41:17;20.70;;;5.13;;
9884;SDS011;4981;50.966;4.842;2023-07-31T00:43:46;16.57;;;5.63;;
9884;SDS011;4981;50.966;4.842;2023-07-31T00:46:12;14.60;;;5.33;;
9884;SDS011;4981;50.966;4.842;2023-07-31T00:48:39;13.33;;;5.17;;
9884;SDS011;4981;50.966;4.842;2023-07-31T00:51:07;19.20;;;5.60;;
9884;SDS011;4981;50.966;4.842;2023-07-31T00:53:35;19.30;;;5.67;;
9884;SDS011;4981;50.966;4.842;2023-07-31T00:56:02;20.90;;;6.10;;
9884;SDS011;4981;50.966;4.842;2023-07-31T00:58:30;18.90;;;5.77;;
9884;SDS011;4981;50.966;4.842;2023-07-31T01:00:58;19.10;;;5.43;;
9884;SDS011;4981;50.966;4.842;2023-07-31T01:03:25;13.67;;;5.63;;
9884;SDS011;4981;50.966;4.842;2023-07-31T01:05:54;15.50;;;5.43;;
9884;SDS011;4981;50.966;4.842;2023-07-31T01:08:30;14.47;;;5.30;;
9884;SDS011;4981;50.966;4.842;2023-07-31T01:11:05;17.67;;;5.87;;
9884;SDS011;4981;50.966;4.842;2023-07-31T01:13:37;26.30;;;5.87;;
9884;SDS011;4981;50.966;4.842;2023-07-31T01:16:05;17.90;;;5.47;;
9884;SDS011;4981;50.966;4.842;2023-07-31T01:18:32;15.20;;;4.97;;
9884;SDS011;4981;50.966;4.842;2023-07-31T01:21:02;20.07;;;5.70;;
9884;SDS011;4981;50.966;4.842;2023-07-31T01:23:37;17.87;;;5.03;;
9884;SDS011;4981;50.966;4.842;2023-07-31T01:26:19;18.40;;;5.70;;
9884;SDS011;4981;50.966;4.842;2023-07-31T01:28:50;19.37;;;5.97;;
9884;SDS011;4981;50.966;4.842;2023-07-31T01:31:23;14.20;;;5.30;;
9884;SDS011;4981;50.966;4.842;2023-07-31T01:33:52;17.83;;;5.80;;
9884;SDS011;4981;50.966;4.842;2023-07-31T01:36:20;10.97;;;4.93;;
9884;SDS011;4981;50.966;4.842;2023-07-31T01:38:48;17.77;;;5.13;;
9884;SDS011;4981;50.966;4.842;2023-07-31T01:41:16;15.37;;;4.90;;
9884;SDS011;4981;50.966;4.842;2023-07-31T01:43:44;12.60;;;4.90;;
9884;SDS011;4981;50.966;4.842;2023-07-31T01:46:12;12.67;;;5.07;;
9884;SDS011;4981;50.966;4.842;2023-07-31T01:48:39;17.43;;;5.87;;
9884;SDS011;4981;50.966;4.842;2023-07-31T01:51:06;12.57;;;5.03;;
9884;SDS011;4981;50.966;4.842;2023-07-31T01:53:32;18.40;;;5.50;;
9884;SDS011;4981;50.966;4.842;2023-07-31T01:55:59;14.50;;;5.53;;
9884;SDS011;4981;50.966;4.842;2023-07-31T01:58:26;13.53;;;4.80;;
9884;SDS011;4981;50.966;4.842;2023-07-31T02:00:55;13.53;;;5.40;;
9884;SDS011;4981;50.966;4.842;2023-07-31T02:03:22;15.00;;;5.30;;
9884;SDS011;4981;50.966;4.842;2023-07-31T02:05:49;11.03;;;4.83;;
9884;SDS011;4981;50.966;4.842;2023-07-31T02:08:16;11.30;;;5.17;;
9884;SDS011;4981;50.966;4.842;2023-07-31T02:10:43;13.77;;;4.97;;
9884;SDS011;4981;50.966;4.842;2023-07-31T02:13:10;12.97;;;5.10;;
9884;SDS011;4981;50.966;4.842;2023-07-31T02:15:37;12.83;;;5.40;;
9884;SDS011;4981;50.966;4.842;2023-07-31T02:18:05;15.20;;;4.67;;
9884;SDS011;4981;50.966;4.842;2023-07-31T02:20:33;13.17;;;5.33;;
9884;SDS011;4981;50.966;4.842;2023-07-31T02:23:01;14.30;;;4.77;;
9884;SDS011;4981;50.966;4.842;2023-07-31T02:25:28;14.53;;;5.53;;
9884;SDS011;4981;50.966;4.842;2023-07-31T02:27:55;13.93;;;5.13;;
9884;SDS011;4981;50.966;4.842;2023-07-31T02:30:22;12.17;;;5.13;;
9884;SDS011;4981;50.966;4.842;2023-07-31T02:32:49;13.70;;;5.53;;
9884;SDS011;4981;50.966;4.842;2023-07-31T02:35:17;15.73;;;5.37;;
9884;SDS011;4981;50.966;4.842;2023-07-31T02:37:44;12.53;;;5.47;;
9884;SDS011;4981;50.966;4.842;2023-07-31T02:40:12;14.27;;;4.73;;
9884;SDS011;4981;50.966;4.842;2023-07-31T02:42:39;14.27;;;5.47;;
9884;SDS011;4981;50.966;4.842;2023-07-31T02:45:06;11.77;;;5.20;;
9884;SDS011;4981;50.966;4.842;2023-07-31T02:47:34;15.03;;;5.53;;
9884;SDS011;4981;50.966;4.842;2023-07-31T02:50:01;13.30;;;5.10;;
9884;SDS011;4981;50.966;4.842;2023-07-31T02:52:30;10.80;;;4.67;;
9884;SDS011;4981;50.966;4.842;2023-07-31T02:54:57;10.20;;;4.57;;
9884;SDS011;4981;50.966;4.842;2023-07-31T02:57:24;10.53;;;4.63;;
9884;SDS011;4981;50.966;4.842;2023-07-31T02:59:51;14.27;;;4.73;;
9884;SDS011;4981;50.966;4.842;2023-07-31T03:02:18;8.87;;;4.53;;
9884;SDS011;4981;50.966;4.842;2023-07-31T03:04:45;16.13;;;4.90;;
9884;SDS011;4981;50.966;4.842;2023-07-31T03:07:12;12.23;;;4.80;;
9884;SDS011;4981;50.966;4.842;2023-07-31T03:09:43;9.80;;;4.57;;
9884;SDS011;4981;50.966;4.842;2023-07-31T03:12:10;10.97;;;5.00;;
9884;SDS011;4981;50.966;4.842;2023-07-31T03:14:37;6.87;;;4.50;;
9884;SDS011;4981;50.966;4.842;2023-07-31T03:17:04;10.30;;;4.73;;
9884;SDS011;4981;50.966;4.842;2023-07-31T03:19:31;10.47;;;4.63;;
9884;SDS011;4981;50.966;4.842;2023-07-31T03:21:58;8.00;;;4.80;;
9884;SDS011;4981;50.966;4.842;2023-07-31T03:24:25;11.73;;;4.90;;
9884;SDS011;4981;50.966;4.842;2023-07-31T03:26:53;11.37;;;4.70;;
9884;SDS011;4981;50.966;4.842;2023-07-31T03:29:20;10.23;;;4.47;;
9884;SDS011;4981;50.966;4.842;2023-07-31T03:31:47;10.47;;;4.70;;
9884;SDS011;4981;50.966;4.842;2023-07-31T03:34:14;9.67;;;4.87;;
9884;SDS011;4981;50.966;4.842;2023-07-31T03:36:41;8.57;;;4.53;;
9884;SDS011;4981;50.966;4.842;2023-07-31T03:39:09;12.33;;;4.83;;
9884;SDS011;4981;50.966;4.842;2023-07-31T03:41:36;6.63;;;4.13;;
9884;SDS011;4981;50.966;4.842;2023-07-31T03:44:04;9.27;;;4.47;;
9884;SDS011;4981;50.966;4.842;2023-07-31T03:46:31;8.43;;;4.23;;
9884;SDS011;4981;50.966;4.842;2023-07-31T03:48:58;11.17;;;4.37;;
9884;SDS011;4981;50.966;4.842;2023-07-31T03:51:25;7.97;;;4.57;;
9884;SDS011;4981;50.966;4.842;2023-07-31T03:53:52;5.87;;;3.77;;
9884;SDS011;4981;50.966;4.842;2023-07-31T03:56:19;7.67;;;4.30;;
9884;SDS011;4981;50.966;4.842;2023-07-31T03:58:47;6.23;;;3.97;;
9884;SDS011;4981;50.966;4.842;2023-07-31T04:01:15;7.03;;;4.23;;
9884;SDS011;4981;50.966;4.842;2023-07-31T04:03:44;7.53;;;3.93;;
9884;SDS011;4981;50.966;4.842;2023-07-31T04:06:11;5.60;;;3.70;;
9884;SDS011;4981;50.966;4.842;2023-07-31T04:08:38;12.77;;;4.17;;
9884;SDS011;4981;50.966;4.842;2023-07-31T04:11:05;8.17;;;4.37;;
9884;SDS011;4981;50.966;4.842;2023-07-31T04:13:32;8.93;;;4.30;;
9884;SDS011;4981;50.966;4.842;2023-07-31T04:15:59;17.33;;;4.80;;
9884;SDS011;4981;50.966;4.842;2023-07-31T04:18:27;12.07;;;4.77;;
9884;SDS011;4981;50.966;4.842;2023-07-31T04:20:56;10.70;;;4.37;;
9884;SDS011;4981;50.966;4.842;2023-07-31T04:23:23;10.37;;;4.70;;
9884;SDS011;4981;50.966;4.842;2023-07-31T04:25:50;18.47;;;5.10;;
9884;SDS011;4981;50.966;4.842;2023-07-31T04:28:17;12.07;;;4.20;;
9884;SDS011;4981;50.966;4.842;2023-07-31T04:30:44;9.67;;;4.70;;
9884;SDS011;4981;50.966;4.842;2023-07-31T04:33:11;9.23;;;4.90;;
9884;SDS011;4981;50.966;4.842;2023-07-31T04:35:39;11.83;;;4.43;;
9884;SDS011;4981;50.966;4.842;2023-07-31T04:38:06;15.37;;;4.73;;
9884;SDS011;4981;50.966;4.842;2023-07-31T04:40:33;11.60;;;4.63;;
9884;SDS011;4981;50.966;4.842;2023-07-31T04:43:00;8.20;;;4.50;;
9884;SDS011;4981;50.966;4.842;2023-07-31T04:45:27;10.20;;;4.70;;
9884;SDS011;4981;50.966;4.842;2023-07-31T04:47:54;8.73;;;4.33;;
9884;SDS011;4981;50.966;4.842;2023-07-31T04:50:21;12.03;;;4.47;;
9884;SDS011;4981;50.966;4.842;2023-07-31T04:52:49;9.17;;;4.77;;
9884;SDS011;4981;50.966;4.842;2023-07-31T04:55:16;8.20;;;4.47;;
9884;SDS011;4981;50.966;4.842;2023-07-31T04:57:43;11.07;;;5.13;;
9884;SDS011;4981;50.966;4.842;2023-07-31T05:00:10;13.53;;;4.47;;
9884;SDS011;4981;50.966;4.842;2023-07-31T05:02:37;10.67;;;4.47;;
9884;SDS011;4981;50.966;4.842;2023-07-31T05:05:04;10.83;;;4.23;;
9884;SDS011;4981;50.966;4.842;2023-07-31T05:07:32;11.97;;;4.53;;
9884;SDS011;4981;50.966;4.842;2023-07-31T05:10:00;10.17;;;4.50;;
9884;SDS011;4981;50.966;4.842;2023-07-31T05:12:27;8.97;;;4.00;;
9884;SDS011;4981;50.966;4.842;2023-07-31T05:14:54;13.47;;;4.33;;
9884;SDS011;4981;50.966;4.842;2023-07-31T05:17:21;9.00;;;4.23;;
9884;SDS011;4981;50.966;4.842;2023-07-31T05:19:48;10.83;;;4.47;;
9884;SDS011;4981;50.966;4.842;2023-07-31T05:22:15;9.83;;;4.50;;
9884;SDS011;4981;50.966;4.842;2023-07-31T05:24:42;8.00;;;4.00;;
9884;SDS011;4981;50.966;4.842;2023-07-31T05:27:10;7.33;;;4.17;;
9884;SDS011;4981;50.966;4.842;2023-07-31T05:29:40;11.40;;;4.43;;
9884;SDS011;4981;50.966;4.842;2023-07-31T05:32:07;8.93;;;4.00;;
9884;SDS011;4981;50.966;4.842;2023-07-31T05:34:34;8.60;;;4.10;;
9884;SDS011;4981;50.966;4.842;2023-07-31T05:37:01;9.33;;;4.10;;
9884;SDS011;4981;50.966;4.842;2023-07-31T05:39:28;12.13;;;4.70;;
9884;SDS011;4981;50.966;4.842;2023-07-31T05:41:55;9.03;;;4.40;;
9884;SDS011;4981;50.966;4.842;2023-07-31T05:44:23;9.20;;;3.73;;
9884;SDS011;4981;50.966;4.842;2023-07-31T05:46:50;5.07;;;3.53;;
9884;SDS011;4981;50.966;4.842;2023-07-31T05:49:17;5.97;;;3.77;;
9884;SDS011;4981;50.966;4.842;2023-07-31T05:51:44;6.40;;;3.73;;
9884;SDS011;4981;50.966;4.842;2023-07-31T05:54:11;8.03;;;3.83;;
9884;SDS011;4981;50.966;4.842;2023-07-31T05:56:38;7.93;;;4.10;;
9884;SDS011;4981;50.966;4.842;2023-07-31T05:59:05;8.87;;;3.90;;
9884;SDS011;4981;50.966;4.842;2023-07-31T06:01:33;8.47;;;3.20;;
9884;SDS011;4981;50.966;4.842;2023-07-31T06:04:03;8.67;;;3.60;;
9884;SDS011;4981;50.966;4.842;2023-07-31T06:06:30;7.90;;;3.73;;
9884;SDS011;4981;50.966;4.842;2023-07-31T06:08:57;10.13;;;3.70;;
9884;SDS011;4981;50.966;4.842;2023-07-31T06:11:24;8.73;;;3.50;;
9884;SDS011;4981;50.966;4.842;2023-07-31T06:13:51;7.57;;;3.60;;
9884;SDS011;4981;50.966;4.842;2023-07-31T06:16:18;6.70;;;3.57;;
9884;SDS011;4981;50.966;4.842;2023-07-31T06:18:48;11.50;;;4.10;;
9884;SDS011;4981;50.966;4.842;2023-07-31T06:21:14;8.17;;;3.80;;
9884;SDS011;4981;50.966;4.842;2023-07-31T06:23:41;7.83;;;3.50;;
9884;SDS011;4981;50.966;4.842;2023-07-31T06:26:09;9.27;;;4.57;;
9884;SDS011;4981;50.966;4.842;2023-07-31T06:28:38;6.57;;;3.70;;
9884;SDS011;4981;50.966;4.842;2023-07-31T06:31:08;8.40;;;3.83;;
9884;SDS011;4981;50.966;4.842;2023-07-31T06:33:35;8.73;;;3.73;;
9884;SDS011;4981;50.966;4.842;2023-07-31T06:36:04;10.53;;;3.47;;
9884;SDS011;4981;50.966;4.842;2023-07-31T06:38:31;10.47;;;3.90;;
9884;SDS011;4981;50.966;4.842;2023-07-31T06:40:58;6.83;;;3.50;;
9884;SDS011;4981;50.966;4.842;2023-07-31T06:43:25;8.77;;;3.20;;
9884;SDS011;4981;50.966;4.842;2023-07-31T06:45:52;9.57;;;3.87;;
9884;SDS011;4981;50.966;4.842;2023-07-31T06:48:19;10.57;;;3.70;;
9884;SDS011;4981;50.966;4.842;2023-07-31T06:50:46;8.07;;;3.60;;
9884;SDS011;4981;50.966;4.842;2023-07-31T06:53:14;9.73;;;3.60;;
9884;SDS011;4981;50.966;4.842;2023-07-31T06:55:41;8.17;;;3.43;;
9884;SDS011;4981;50.966;4.842;2023-07-31T06:58:08;7.17;;;3.87;;
9884;SDS011;4981;50.966;4.842;2023-07-31T07:00:35;7.43;;;3.57;;
9884;SDS011;4981;50.966;4.842;2023-07-31T07:03:02;7.60;;;3.57;;
9884;SDS011;4981;50.966;4.842;2023-07-31T07:05:29;7.30;;;3.63;;
9884;SDS011;4981;50.966;4.842;2023-07-31T07:07:56;10.83;;;3.40;;
9884;SDS011;4981;50.966;4.842;2023-07-31T07:10:24;7.33;;;3.40;;
9884;SDS011;4981;50.966;4.842;2023-07-31T07:12:51;7.17;;;3.23;;
9884;SDS011;4981;50.966;4.842;2023-07-31T07:15:19;7.60;;;3.63;;
9884;SDS011;4981;50.966;4.842;2023-07-31T07:17:46;8.33;;;3.63;;
9884;SDS011;4981;50.966;4.842;2023-07-31T07:20:13;6.80;;;3.63;;
9884;SDS011;4981;50.966;4.842;2023-07-31T07:22:40;7.93;;;3.40;;
9884;SDS011;4981;50.966;4.842;2023-07-31T07:25:08;9.87;;;3.33;;
9884;SDS011;4981;50.966;4.842;2023-07-31T07:27:37;6.40;;;3.77;;
9884;SDS011;4981;50.966;4.842;2023-07-31T07:30:04;6.97;;;3.30;;
9884;SDS011;4981;50.966;4.842;2023-07-31T07:32:32;9.90;;;3.20;;
9884;SDS011;4981;50.966;4.842;2023-07-31T11:28:16;7.47;;;3.73;;
9884;SDS011;4981;50.966;4.842;2023-07-31T11:30:44;7.67;;;3.60;;
9884;SDS011;4981;50.966;4.842;2023-07-31T11:33:12;7.67;;;3.90;;
9884;SDS011;4981;50.966;4.842;2023-07-31T11:35:41;8.30;;;4.07;;
9884;SDS011;4981;50.966;4.842;2023-07-31T11:38:10;7.53;;;3.63;;
9884;SDS011;4981;50.966;4.842;2023-07-31T11:40:40;6.30;;;3.93;;
9884;SDS011;4981;50.966;4.842;2023-07-31T11:43:08;6.67;;;3.80;;
9884;SDS011;4981;50.966;4.842;2023-07-31T11:45:37;6.37;;;4.07;;
9884;SDS011;4981;50.966;4.842;2023-07-31T11:48:06;5.70;;;3.30;;
9884;SDS011;4981;50.966;4.842;2023-07-31T11:50:33;8.00;;;3.50;;
9884;SDS011;4981;50.966;4.842;2023-07-31T11:53:03;8.00;;;3.60;;
9884;SDS011;4981;50.966;4.842;2023-07-31T11:55:34;6.77;;;3.57;;
9884;SDS011;4981;50.966;4.842;2023-07-31T11:58:01;4.60;;;2.60;;
9884;SDS011;4981;50.966;4.842;2023-07-31T12:00:29;6.97;;;3.23;;
9884;SDS011;4981;50.966;4.842;2023-07-31T12:02:58;5.53;;;3.17;;
9884;SDS011;4981;50.966;4.842;2023-07-31T12:05:25;9.00;;;3.93;;
9884;SDS011;4981;50.966;4.842;2023-07-31T12:07:53;6.57;;;2.87;;
9884;SDS011;4981;50.966;4.842;2023-07-31T12:10:27;9.18;;;3.92;;
9884;SDS011;4981;50.966;4.842;2023-07-31T12:12:59;10.43;;;3.83;;
9884;SDS011;4981;50.966;4.842;2023-07-31T12:15:29;8.70;;;3.97;;
9884;SDS011;4981;50.966;4.842;2023-07-31T12:18:08;7.97;;;3.67;;
9884;SDS011;4981;50.966;4.842;2023-07-31T12:20:40;9.07;;;3.77;;
9884;SDS011;4981;50.966;4.842;2023-07-31T12:23:12;7.78;;;3.80;;
9884;SDS011;4981;50.966;4.842;2023-07-31T12:25:41;9.87;;;3.60;;
